Alt Vega Baja, Puerto Rico
Current Conditions -  °F | °C
As of 9:56 AM on Saturday 20 Dec 2014 (Local Time) from TJSJ Reporting Station
Scattered Clouds Scattered Clouds  
Wind Chill: 27°   Ceiling: Unl
Heat Index: 29°   Visibility: 10mi
Dew Point: 22°   Wind: 10mph
Humidity: 72%   Direction: 70°ENE
Pressure: 30.06"   Gusts: NA
Location:  18.4061°N, 66.3012°W
Report Text: TJSJ 201356Z 07009KT 10SM SCT032 SCT040 27/22 A3006 RMK AO2 SLP178 T02720217
Loading
Personal Weather Stations






























Interactive Weather Map New forecast layout! Learn more

10-Day Weather Forecast

Advertisements
Track Severe Weather on mobile